sensor_id;sensor_type;location;lat;lon;timestamp;temperature;humidity
6164;DHT22;3114;48.362;10.994;2023-04-24T00:01:17;12.20;1.00
6164;DHT22;3114;48.362;10.994;2023-04-24T00:06:12;11.60;1.00
6164;DHT22;3114;48.362;10.994;2023-04-24T00:08:38;11.80;1.00
6164;DHT22;3114;48.362;10.994;2023-04-24T00:11:05;12.00;1.00
6164;DHT22;3114;48.362;10.994;2023-04-24T00:15:59;11.50;1.00
6164;DHT22;3114;48.362;10.994;2023-04-24T00:20:55;11.50;1.00
6164;DHT22;3114;48.362;10.994;2023-04-24T00:23:22;11.80;99.90
6164;DHT22;3114;48.362;10.994;2023-04-24T00:33:10;11.50;1.00
6164;DHT22;3114;48.362;10.994;2023-04-24T00:35:39;10.80;99.90
6164;DHT22;3114;48.362;10.994;2023-04-24T00:38:06;11.40;1.00
6164;DHT22;3114;48.362;10.994;2023-04-24T00:40:33;11.40;1.00
6164;DHT22;3114;48.362;10.994;2023-04-24T00:43:00;11.70;1.00
6164;DHT22;3114;48.362;10.994;2023-04-24T00:47:54;11.20;1.00
6164;DHT22;3114;48.362;10.994;2023-04-24T00:52:49;11.40;99.90
6164;DHT22;3114;48.362;10.994;2023-04-24T01:00:12;11.30;99.90
6164;DHT22;3114;48.362;10.994;2023-04-24T01:02:41;11.30;1.00
6164;DHT22;3114;48.362;10.994;2023-04-24T01:05:11;11.30;99.90
6164;DHT22;3114;48.362;10.994;2023-04-24T01:07:39;11.40;1.00
6164;DHT22;3114;48.362;10.994;2023-04-24T01:10:11;11.50;99.90
6164;DHT22;3114;48.362;10.994;2023-04-24T01:15:07;11.40;1.00
6164;DHT22;3114;48.362;10.994;2023-04-24T01:22:33;11.20;1.00
6164;DHT22;3114;48.362;10.994;2023-04-24T01:27:27;11.10;1.00
6164;DHT22;3114;48.362;10.994;2023-04-24T01:32:21;11.20;99.90
6164;DHT22;3114;48.362;10.994;2023-04-24T01:34:49;11.20;99.90
6164;DHT22;3114;48.362;10.994;2023-04-24T01:37:16;11.30;1.00
6164;DHT22;3114;48.362;10.994;2023-04-24T01:39:44;11.30;99.90
6164;DHT22;3114;48.362;10.994;2023-04-24T01:42:12;11.30;1.00
6164;DHT22;3114;48.362;10.994;2023-04-24T01:44:40;11.40;99.90
6164;DHT22;3114;48.362;10.994;2023-04-24T01:52:01;11.80;1.00
6164;DHT22;3114;48.362;10.994;2023-04-24T01:54:28;11.50;1.00
6164;DHT22;3114;48.362;10.994;2023-04-24T01:56:57;11.30;99.90
6164;DHT22;3114;48.362;10.994;2023-04-24T01:59:25;11.50;1.00
6164;DHT22;3114;48.362;10.994;2023-04-24T02:11:42;11.20;1.00
6164;DHT22;3114;48.362;10.994;2023-04-24T02:14:11;11.20;1.00
6164;DHT22;3114;48.362;10.994;2023-04-24T02:16:38;11.00;1.00
6164;DHT22;3114;48.362;10.994;2023-04-24T02:19:05;10.60;1.00
6164;DHT22;3114;48.362;10.994;2023-04-24T02:23:59;11.00;1.00
6164;DHT22;3114;48.362;10.994;2023-04-24T02:28:53;10.70;99.90
6164;DHT22;3114;48.362;10.994;2023-04-24T02:36:16;10.70;1.00
6164;DHT22;3114;48.362;10.994;2023-04-24T02:38:42;10.70;1.00
6164;DHT22;3114;48.362;10.994;2023-04-24T02:46:04;10.80;99.90
6164;DHT22;3114;48.362;10.994;2023-04-24T02:48:32;11.20;1.00
6164;DHT22;3114;48.362;10.994;2023-04-24T02:50:59;11.10;1.00
6164;DHT22;3114;48.362;10.994;2023-04-24T03:00:47;10.80;1.00
6164;DHT22;3114;48.362;10.994;2023-04-24T03:05:42;10.50;99.90
6164;DHT22;3114;48.362;10.994;2023-04-24T03:10:37;10.60;1.00
6164;DHT22;3114;48.362;10.994;2023-04-24T03:13:04;10.70;1.00
6164;DHT22;3114;48.362;10.994;2023-04-24T03:20:26;10.80;1.00
6164;DHT22;3114;48.362;10.994;2023-04-24T03:22:54;11.00;99.90
6164;DHT22;3114;48.362;10.994;2023-04-24T03:25:22;11.20;1.00
6164;DHT22;3114;48.362;10.994;2023-04-24T03:27:48;11.70;1.00
6164;DHT22;3114;48.362;10.994;2023-04-24T03:32:42;10.90;1.00
6164;DHT22;3114;48.362;10.994;2023-04-24T03:40:06;10.90;99.90
6164;DHT22;3114;48.362;10.994;2023-04-24T03:45:01;10.50;1.00
6164;DHT22;3114;48.362;10.994;2023-04-24T03:47:27;10.60;99.90
6164;DHT22;3114;48.362;10.994;2023-04-24T03:49:54;10.90;1.00
6164;DHT22;3114;48.362;10.994;2023-04-24T03:54:48;10.60;99.90
6164;DHT22;3114;48.362;10.994;2023-04-24T03:57:16;10.80;99.90
6164;DHT22;3114;48.362;10.994;2023-04-24T04:04:38;10.70;1.00
6164;DHT22;3114;48.362;10.994;2023-04-24T04:09:32;10.80;1.00
6164;DHT22;3114;48.362;10.994;2023-04-24T04:11:59;10.80;99.90
6164;DHT22;3114;48.362;10.994;2023-04-24T04:14:27;10.90;99.90
6164;DHT22;3114;48.362;10.994;2023-04-24T04:19:21;10.30;99.90
6164;DHT22;3114;48.362;10.994;2023-04-24T04:21:48;10.80;1.00
6164;DHT22;3114;48.362;10.994;2023-04-24T04:31:45;11.00;1.00
6164;DHT22;3114;48.362;10.994;2023-04-24T04:34:12;10.80;1.00
6164;DHT22;3114;48.362;10.994;2023-04-24T04:39:06;10.50;1.00
6164;DHT22;3114;48.362;10.994;2023-04-24T04:41:33;10.60;1.00
6164;DHT22;3114;48.362;10.994;2023-04-24T04:46:30;10.60;1.00
6164;DHT22;3114;48.362;10.994;2023-04-24T04:49:00;10.60;99.90
6164;DHT22;3114;48.362;10.994;2023-04-24T04:51:28;10.90;1.00
6164;DHT22;3114;48.362;10.994;2023-04-24T04:53:55;10.50;1.00
6164;DHT22;3114;48.362;10.994;2023-04-24T04:56:22;10.60;1.00
6164;DHT22;3114;48.362;10.994;2023-04-24T05:01:16;10.70;99.90
6164;DHT22;3114;48.362;10.994;2023-04-24T05:06:12;10.80;1.00
6164;DHT22;3114;48.362;10.994;2023-04-24T05:08:41;10.70;1.00
6164;DHT22;3114;48.362;10.994;2023-04-24T05:11:08;11.40;1.00
6164;DHT22;3114;48.362;10.994;2023-04-24T05:13:35;10.70;1.00
6164;DHT22;3114;48.362;10.994;2023-04-24T05:16:02;10.80;99.90
6164;DHT22;3114;48.362;10.994;2023-04-24T05:18:29;10.70;1.00
6164;DHT22;3114;48.362;10.994;2023-04-24T05:35:40;11.20;99.90
6164;DHT22;3114;48.362;10.994;2023-04-24T05:38:11;10.80;1.00
6164;DHT22;3114;48.362;10.994;2023-04-24T05:40:39;10.70;99.90
6164;DHT22;3114;48.362;10.994;2023-04-24T05:45:33;10.70;1.00
6164;DHT22;3114;48.362;10.994;2023-04-24T05:50:28;10.70;1.00
6164;DHT22;3114;48.362;10.994;2023-04-24T05:55:23;10.60;99.90
6164;DHT22;3114;48.362;10.994;2023-04-24T05:57:52;10.40;1.00
6164;DHT22;3114;48.362;10.994;2023-04-24T06:00:19;10.50;1.00
6164;DHT22;3114;48.362;10.994;2023-04-24T06:02:47;9.80;99.90
6164;DHT22;3114;48.362;10.994;2023-04-24T06:05:14;10.70;1.00
6164;DHT22;3114;48.362;10.994;2023-04-24T06:10:09;10.10;99.90
6164;DHT22;3114;48.362;10.994;2023-04-24T06:15:06;11.00;1.00
6164;DHT22;3114;48.362;10.994;2023-04-24T06:20:00;10.30;1.00
6164;DHT22;3114;48.362;10.994;2023-04-24T06:22:29;10.40;1.00
6164;DHT22;3114;48.362;10.994;2023-04-24T06:24:56;10.50;1.00
6164;DHT22;3114;48.362;10.994;2023-04-24T06:27:23;10.40;1.00
6164;DHT22;3114;48.362;10.994;2023-04-24T06:29:50;10.60;99.90
6164;DHT22;3114;48.362;10.994;2023-04-24T06:32:21;10.60;99.90
6164;DHT22;3114;48.362;10.994;2023-04-24T06:34:48;10.40;99.90
6164;DHT22;3114;48.362;10.994;2023-04-24T06:37:15;10.60;99.90
6164;DHT22;3114;48.362;10.994;2023-04-24T06:39:42;10.60;99.90
6164;DHT22;3114;48.362;10.994;2023-04-24T06:42:09;11.00;99.90
6164;DHT22;3114;48.362;10.994;2023-04-24T06:44:36;10.50;99.90
6164;DHT22;3114;48.362;10.994;2023-04-24T06:47:06;10.70;99.90
6164;DHT22;3114;48.362;10.994;2023-04-24T06:49:35;10.50;99.90
6164;DHT22;3114;48.362;10.994;2023-04-24T06:52:01;10.50;99.90
6164;DHT22;3114;48.362;10.994;2023-04-24T06:54:29;10.60;1.00
6164;DHT22;3114;48.362;10.994;2023-04-24T06:56:56;10.70;99.90
6164;DHT22;3114;48.362;10.994;2023-04-24T06:59:23;10.70;99.90
6164;DHT22;3114;48.362;10.994;2023-04-24T07:01:50;10.80;1.00
6164;DHT22;3114;48.362;10.994;2023-04-24T07:04:17;10.70;99.90
6164;DHT22;3114;48.362;10.994;2023-04-24T07:06:46;10.80;1.00
6164;DHT22;3114;48.362;10.994;2023-04-24T07:09:13;10.60;1.00
6164;DHT22;3114;48.362;10.994;2023-04-24T07:11:41;10.60;1.00
6164;DHT22;3114;48.362;10.994;2023-04-24T07:14:08;10.70;99.90
6164;DHT22;3114;48.362;10.994;2023-04-24T07:16:35;11.10;1.00
6164;DHT22;3114;48.362;10.994;2023-04-24T07:19:02;10.90;99.90
6164;DHT22;3114;48.362;10.994;2023-04-24T07:21:29;10.90;99.90
6164;DHT22;3114;48.362;10.994;2023-04-24T07:23:58;9.80;99.90
6164;DHT22;3114;48.362;10.994;2023-04-24T07:26:26;10.60;99.90
6164;DHT22;3114;48.362;10.994;2023-04-24T07:28:53;10.90;99.90
6164;DHT22;3114;48.362;10.994;2023-04-24T07:31:20;10.80;99.90
6164;DHT22;3114;48.362;10.994;2023-04-24T07:33:47;10.80;99.90
6164;DHT22;3114;48.362;10.994;2023-04-24T07:36:14;10.60;99.90
6164;DHT22;3114;48.362;10.994;2023-04-24T07:38:44;10.70;99.90
6164;DHT22;3114;48.362;10.994;2023-04-24T07:41:12;10.60;99.90
6164;DHT22;3114;48.362;10.994;2023-04-24T07:43:39;10.70;99.90
6164;DHT22;3114;48.362;10.994;2023-04-24T07:46:06;10.50;99.90
6164;DHT22;3114;48.362;10.994;2023-04-24T07:48:33;10.50;99.90
6164;DHT22;3114;48.362;10.994;2023-04-24T07:51:00;9.90;1.00
6164;DHT22;3114;48.362;10.994;2023-04-24T07:53:27;10.30;99.90
6164;DHT22;3114;48.362;10.994;2023-04-24T07:55:54;10.60;99.90
6164;DHT22;3114;48.362;10.994;2023-04-24T07:58:22;10.40;99.90
6164;DHT22;3114;48.362;10.994;2023-04-24T08:00:49;10.40;99.90
6164;DHT22;3114;48.362;10.994;2023-04-24T08:03:16;10.30;99.90
6164;DHT22;3114;48.362;10.994;2023-04-24T08:05:45;10.40;99.90
6164;DHT22;3114;48.362;10.994;2023-04-24T08:08:12;10.40;99.90
6164;DHT22;3114;48.362;10.994;2023-04-24T08:10:40;10.50;99.90
6164;DHT22;3114;48.362;10.994;2023-04-24T08:13:07;10.50;99.90
6164;DHT22;3114;48.362;10.994;2023-04-24T08:15:35;10.00;1.00
6164;DHT22;3114;48.362;10.994;2023-04-24T08:18:02;10.80;99.90
6164;DHT22;3114;48.362;10.994;2023-04-24T08:20:29;10.70;99.90
6164;DHT22;3114;48.362;10.994;2023-04-24T08:22:59;10.90;99.90
6164;DHT22;3114;48.362;10.994;2023-04-24T08:25:25;10.80;99.90
6164;DHT22;3114;48.362;10.994;2023-04-24T08:27:52;11.30;99.90
6164;DHT22;3114;48.362;10.994;2023-04-24T08:30:20;11.30;1.00
6164;DHT22;3114;48.362;10.994;2023-04-24T08:32:48;11.60;1.00
6164;DHT22;3114;48.362;10.994;2023-04-24T08:37:42;11.70;1.00
6164;DHT22;3114;48.362;10.994;2023-04-24T08:40:13;11.60;99.90
6164;DHT22;3114;48.362;10.994;2023-04-24T08:42:42;11.70;99.90
6164;DHT22;3114;48.362;10.994;2023-04-24T08:45:11;11.80;99.90
6164;DHT22;3114;48.362;10.994;2023-04-24T08:47:38;11.60;99.90
6164;DHT22;3114;48.362;10.994;2023-04-24T08:50:08;11.90;1.00
6164;DHT22;3114;48.362;10.994;2023-04-24T08:52:35;11.90;1.00
6164;DHT22;3114;48.362;10.994;2023-04-24T08:55:02;11.90;1.00
6164;DHT22;3114;48.362;10.994;2023-04-24T08:57:30;11.70;1.00
6164;DHT22;3114;48.362;10.994;2023-04-24T08:59:58;12.10;1.00
6164;DHT22;3114;48.362;10.994;2023-04-24T09:02:25;12.00;1.00
6164;DHT22;3114;48.362;10.994;2023-04-24T09:04:53;12.20;99.90
6164;DHT22;3114;48.362;10.994;2023-04-24T09:07:22;12.90;1.00
6164;DHT22;3114;48.362;10.994;2023-04-24T09:09:51;12.10;1.00
6164;DHT22;3114;48.362;10.994;2023-04-24T09:12:18;12.00;99.90
6164;DHT22;3114;48.362;10.994;2023-04-24T09:14:45;12.00;99.90
6164;DHT22;3114;48.362;10.994;2023-04-24T09:17:12;12.10;99.90
6164;DHT22;3114;48.362;10.994;2023-04-24T09:19:40;12.30;1.00
6164;DHT22;3114;48.362;10.994;2023-04-24T09:22:07;12.30;99.90
6164;DHT22;3114;48.362;10.994;2023-04-24T09:24:36;12.20;1.00
6164;DHT22;3114;48.362;10.994;2023-04-24T09:27:03;12.00;1.00
6164;DHT22;3114;48.362;10.994;2023-04-24T09:29:30;12.10;99.90
6164;DHT22;3114;48.362;10.994;2023-04-24T09:31:58;11.80;1.00
6164;DHT22;3114;48.362;10.994;2023-04-24T09:34:26;12.00;1.00
6164;DHT22;3114;48.362;10.994;2023-04-24T09:36:54;12.10;1.00
6164;DHT22;3114;48.362;10.994;2023-04-24T09:39:21;12.20;99.90
6164;DHT22;3114;48.362;10.994;2023-04-24T09:41:50;12.30;99.90
6164;DHT22;3114;48.362;10.994;2023-04-24T09:44:19;12.20;1.00
6164;DHT22;3114;48.362;10.994;2023-04-24T09:46:53;12.20;1.00
6164;DHT22;3114;48.362;10.994;2023-04-24T09:49:23;12.70;1.00
6164;DHT22;3114;48.362;10.994;2023-04-24T09:51:50;12.70;99.90
6164;DHT22;3114;48.362;10.994;2023-04-24T09:54:19;13.10;99.90
6164;DHT22;3114;48.362;10.994;2023-04-24T09:56:49;12.20;1.00
6164;DHT22;3114;48.362;10.994;2023-04-24T09:59:17;12.50;1.00
6164;DHT22;3114;48.362;10.994;2023-04-24T10:01:44;12.50;1.00
6164;DHT22;3114;48.362;10.994;2023-04-24T10:04:19;12.40;99.90
6164;DHT22;3114;48.362;10.994;2023-04-24T10:06:48;12.40;1.00
6164;DHT22;3114;48.362;10.994;2023-04-24T10:09:15;12.70;99.90
6164;DHT22;3114;48.362;10.994;2023-04-24T10:11:44;12.60;99.90
6164;DHT22;3114;48.362;10.994;2023-04-24T10:14:15;12.40;1.00
6164;DHT22;3114;48.362;10.994;2023-04-24T10:16:42;12.50;99.90
6164;DHT22;3114;48.362;10.994;2023-04-24T10:19:10;12.50;1.00
6164;DHT22;3114;48.362;10.994;2023-04-24T10:21:40;12.80;1.00
6164;DHT22;3114;48.362;10.994;2023-04-24T10:24:12;12.40;99.90
6164;DHT22;3114;48.362;10.994;2023-04-24T10:26:38;10.00;1.00
6164;DHT22;3114;48.362;10.994;2023-04-24T10:29:06;9.90;99.90
6164;DHT22;3114;48.362;10.994;2023-04-24T10:31:37;9.70;99.90
6164;DHT22;3114;48.362;10.994;2023-04-24T10:34:05;9.80;1.00
6164;DHT22;3114;48.362;10.994;2023-04-24T10:36:33;9.80;1.00
6164;DHT22;3114;48.362;10.994;2023-04-24T10:39:02;9.90;1.00
6164;DHT22;3114;48.362;10.994;2023-04-24T10:41:30;9.60;1.00
6164;DHT22;3114;48.362;10.994;2023-04-24T10:44:06;9.60;1.00
6164;DHT22;3114;48.362;10.994;2023-04-24T10:46:37;9.50;99.90
6164;DHT22;3114;48.362;10.994;2023-04-24T10:49:05;9.40;99.90
6164;DHT22;3114;48.362;10.994;2023-04-24T10:51:46;9.50;99.90
6164;DHT22;3114;48.362;10.994;2023-04-24T10:54:27;9.90;99.90
6164;DHT22;3114;48.362;10.994;2023-04-24T10:57:26;9.90;99.90
6164;DHT22;3114;48.362;10.994;2023-04-24T11:00:13;10.20;99.90
6164;DHT22;3114;48.362;10.994;2023-04-24T11:02:42;10.20;99.90
6164;DHT22;3114;48.362;10.994;2023-04-24T11:05:15;10.50;99.90
6164;DHT22;3114;48.362;10.994;2023-04-24T11:08:10;10.80;99.90
6164;DHT22;3114;48.362;10.994;2023-04-24T11:10:39;11.00;99.90
6164;DHT22;3114;48.362;10.994;2023-04-24T11:13:06;10.90;99.90
6164;DHT22;3114;48.362;10.994;2023-04-24T11:15:34;11.30;99.90
6164;DHT22;3114;48.362;10.994;2023-04-24T11:18:03;11.70;99.90
6164;DHT22;3114;48.362;10.994;2023-04-24T11:20:30;12.40;99.90
6164;DHT22;3114;48.362;10.994;2023-04-24T11:23:03;12.40;99.90
6164;DHT22;3114;48.362;10.994;2023-04-24T11:25:31;12.40;99.90
6164;DHT22;3114;48.362;10.994;2023-04-24T11:28:04;12.50;99.90
6164;DHT22;3114;48.362;10.994;2023-04-24T11:30:32;12.80;99.90
6164;DHT22;3114;48.362;10.994;2023-04-24T11:33:04;14.00;99.90
6164;DHT22;3114;48.362;10.994;2023-04-24T11:35:35;14.20;99.90
6164;DHT22;3114;48.362;10.994;2023-04-24T11:38:06;13.70;99.90
6164;DHT22;3114;48.362;10.994;2023-04-24T11:40:33;15.10;99.90
6164;DHT22;3114;48.362;10.994;2023-04-24T11:43:00;17.00;99.90
6164;DHT22;3114;48.362;10.994;2023-04-24T11:45:28;18.20;99.90
6164;DHT22;3114;48.362;10.994;2023-04-24T11:47:55;17.90;99.90
6164;DHT22;3114;48.362;10.994;2023-04-24T11:50:25;18.80;99.90
6164;DHT22;3114;48.362;10.994;2023-04-24T11:52:53;18.70;99.90
6164;DHT22;3114;48.362;10.994;2023-04-24T11:55:28;17.00;99.90
6164;DHT22;3114;48.362;10.994;2023-04-24T11:57:57;16.20;99.90
6164;DHT22;3114;48.362;10.994;2023-04-24T12:00:25;15.70;99.90
6164;DHT22;3114;48.362;10.994;2023-04-24T12:03:04;14.10;99.90
6164;DHT22;3114;48.362;10.994;2023-04-24T12:05:33;13.40;99.90
6164;DHT22;3114;48.362;10.994;2023-04-24T12:08:00;13.40;99.90
6164;DHT22;3114;48.362;10.994;2023-04-24T12:10:29;13.10;99.90
6164;DHT22;3114;48.362;10.994;2023-04-24T12:12:56;12.80;99.90
6164;DHT22;3114;48.362;10.994;2023-04-24T12:15:24;12.90;99.90
6164;DHT22;3114;48.362;10.994;2023-04-24T12:17:52;13.80;99.90
6164;DHT22;3114;48.362;10.994;2023-04-24T12:20:24;15.00;99.90
6164;DHT22;3114;48.362;10.994;2023-04-24T12:22:54;16.60;99.90
6164;DHT22;3114;48.362;10.994;2023-04-24T12:25:22;17.50;99.90
6164;DHT22;3114;48.362;10.994;2023-04-24T12:27:53;19.40;99.90
6164;DHT22;3114;48.362;10.994;2023-04-24T12:30:25;21.20;99.90
6164;DHT22;3114;48.362;10.994;2023-04-24T12:32:52;20.10;99.90
6164;DHT22;3114;48.362;10.994;2023-04-24T12:35:21;19.70;99.90
6164;DHT22;3114;48.362;10.994;2023-04-24T12:37:48;20.20;99.90
6164;DHT22;3114;48.362;10.994;2023-04-24T12:40:19;21.20;99.90
6164;DHT22;3114;48.362;10.994;2023-04-24T12:42:48;21.90;99.90
6164;DHT22;3114;48.362;10.994;2023-04-24T12:45:16;21.70;99.90
6164;DHT22;3114;48.362;10.994;2023-04-24T12:47:44;20.60;99.90
6164;DHT22;3114;48.362;10.994;2023-04-24T12:50:12;21.70;99.90
6164;DHT22;3114;48.362;10.994;2023-04-24T12:52:40;21.10;99.90
6164;DHT22;3114;48.362;10.994;2023-04-24T12:55:08;22.20;99.90
6164;DHT22;3114;48.362;10.994;2023-04-24T12:57:38;20.00;99.90
6164;DHT22;3114;48.362;10.994;2023-04-24T13:00:07;16.10;99.90
6164;DHT22;3114;48.362;10.994;2023-04-24T13:02:34;14.60;99.90
6164;DHT22;3114;48.362;10.994;2023-04-24T13:05:02;14.40;99.90
6164;DHT22;3114;48.362;10.994;2023-04-24T13:07:31;14.10;99.90
6164;DHT22;3114;48.362;10.994;2023-04-24T13:09:58;13.80;99.90
6164;DHT22;3114;48.362;10.994;2023-04-24T13:12:25;13.50;99.90
6164;DHT22;3114;48.362;10.994;2023-04-24T13:14:53;13.20;99.90
6164;DHT22;3114;48.362;10.994;2023-04-24T13:17:21;13.20;99.90
6164;DHT22;3114;48.362;10.994;2023-04-24T13:19:49;14.10;99.90
6164;DHT22;3114;48.362;10.994;2023-04-24T13:22:17;15.50;99.90
6164;DHT22;3114;48.362;10.994;2023-04-24T13:24:44;16.20;99.90
6164;DHT22;3114;48.362;10.994;2023-04-24T13:27:11;17.00;99.90
6164;DHT22;3114;48.362;10.994;2023-04-24T13:29:38;18.80;99.90
6164;DHT22;3114;48.362;10.994;2023-04-24T13:32:09;20.10;99.90
6164;DHT22;3114;48.362;10.994;2023-04-24T13:34:36;20.10;99.90
6164;DHT22;3114;48.362;10.994;2023-04-24T13:37:03;18.10;99.90
6164;DHT22;3114;48.362;10.994;2023-04-24T13:39:30;17.50;99.90
6164;DHT22;3114;48.362;10.994;2023-04-24T13:41:58;15.80;99.90
6164;DHT22;3114;48.362;10.994;2023-04-24T13:44:26;15.70;99.90
6164;DHT22;3114;48.362;10.994;2023-04-24T13:46:54;15.00;99.90
6164;DHT22;3114;48.362;10.994;2023-04-24T13:49:24;15.50;99.90
6164;DHT22;3114;48.362;10.994;2023-04-24T13:51:52;15.30;99.90
6164;DHT22;3114;48.362;10.994;2023-04-24T13:54:19;15.50;99.90
6164;DHT22;3114;48.362;10.994;2023-04-24T13:56:46;15.00;99.90
6164;DHT22;3114;48.362;10.994;2023-04-24T13:59:13;14.20;99.90
6164;DHT22;3114;48.362;10.994;2023-04-24T14:01:40;14.40;99.90
6164;DHT22;3114;48.362;10.994;2023-04-24T14:04:07;15.80;99.90
6164;DHT22;3114;48.362;10.994;2023-04-24T14:06:35;16.50;99.90
6164;DHT22;3114;48.362;10.994;2023-04-24T14:09:02;14.90;99.90
6164;DHT22;3114;48.362;10.994;2023-04-24T14:11:29;14.00;99.90
6164;DHT22;3114;48.362;10.994;2023-04-24T14:13:56;13.90;99.90
6164;DHT22;3114;48.362;10.994;2023-04-24T14:16:23;13.80;99.90
6164;DHT22;3114;48.362;10.994;2023-04-24T14:18:50;13.70;99.90
6164;DHT22;3114;48.362;10.994;2023-04-24T14:21:17;13.40;99.90
6164;DHT22;3114;48.362;10.994;2023-04-24T14:23:45;13.30;99.90
6164;DHT22;3114;48.362;10.994;2023-04-24T14:26:12;13.10;99.90
6164;DHT22;3114;48.362;10.994;2023-04-24T14:28:38;12.90;99.90
6164;DHT22;3114;48.362;10.994;2023-04-24T14:31:06;12.70;99.90
6164;DHT22;3114;48.362;10.994;2023-04-24T14:33:33;12.90;99.90
6164;DHT22;3114;48.362;10.994;2023-04-24T14:36:00;14.00;99.90
6164;DHT22;3114;48.362;10.994;2023-04-24T14:38:28;14.40;99.90
6164;DHT22;3114;48.362;10.994;2023-04-24T14:40:56;14.10;99.90
6164;DHT22;3114;48.362;10.994;2023-04-24T14:43:23;14.40;99.90
6164;DHT22;3114;48.362;10.994;2023-04-24T14:45:50;14.80;99.90
6164;DHT22;3114;48.362;10.994;2023-04-24T14:48:17;14.70;99.90
6164;DHT22;3114;48.362;10.994;2023-04-24T14:50:44;14.70;99.90
6164;DHT22;3114;48.362;10.994;2023-04-24T14:53:11;14.50;99.90
6164;DHT22;3114;48.362;10.994;2023-04-24T14:55:38;14.70;99.90
6164;DHT22;3114;48.362;10.994;2023-04-24T14:58:06;14.30;99.90
6164;DHT22;3114;48.362;10.994;2023-04-24T15:00:33;13.80;99.90
6164;DHT22;3114;48.362;10.994;2023-04-24T15:03:00;13.80;99.90
6164;DHT22;3114;48.362;10.994;2023-04-24T15:05:27;13.20;99.90
6164;DHT22;3114;48.362;10.994;2023-04-24T15:07:54;13.30;99.90
6164;DHT22;3114;48.362;10.994;2023-04-24T15:10:21;13.20;99.90
6164;DHT22;3114;48.362;10.994;2023-04-24T15:12:49;13.40;99.90
6164;DHT22;3114;48.362;10.994;2023-04-24T15:15:17;13.60;99.90
6164;DHT22;3114;48.362;10.994;2023-04-24T15:17:44;14.00;99.90
6164;DHT22;3114;48.362;10.994;2023-04-24T15:20:11;14.20;99.90
6164;DHT22;3114;48.362;10.994;2023-04-24T15:22:38;14.20;99.90
6164;DHT22;3114;48.362;10.994;2023-04-24T15:25:06;13.90;99.90
6164;DHT22;3114;48.362;10.994;2023-04-24T15:27:40;14.40;99.90
6164;DHT22;3114;48.362;10.994;2023-04-24T15:30:09;14.40;99.90
6164;DHT22;3114;48.362;10.994;2023-04-24T15:32:38;14.00;99.90
6164;DHT22;3114;48.362;10.994;2023-04-24T15:35:06;13.80;99.90
6164;DHT22;3114;48.362;10.994;2023-04-24T15:37:33;13.60;99.90
6164;DHT22;3114;48.362;10.994;2023-04-24T15:40:00;13.80;99.90
6164;DHT22;3114;48.362;10.994;2023-04-24T15:42:29;14.10;99.90
6164;DHT22;3114;48.362;10.994;2023-04-24T15:44:56;14.50;99.90
6164;DHT22;3114;48.362;10.994;2023-04-24T15:47:23;14.40;99.90
6164;DHT22;3114;48.362;10.994;2023-04-24T15:49:52;14.70;99.90
6164;DHT22;3114;48.362;10.994;2023-04-24T15:52:19;14.70;99.90
6164;DHT22;3114;48.362;10.994;2023-04-24T15:54:46;14.60;99.90
6164;DHT22;3114;48.362;10.994;2023-04-24T15:57:13;14.20;99.90
6164;DHT22;3114;48.362;10.994;2023-04-24T15:59:40;14.00;99.90
6164;DHT22;3114;48.362;10.994;2023-04-24T16:02:08;14.20;99.90
6164;DHT22;3114;48.362;10.994;2023-04-24T16:04:36;14.10;99.90
6164;DHT22;3114;48.362;10.994;2023-04-24T16:07:04;13.80;99.90
6164;DHT22;3114;48.362;10.994;2023-04-24T16:09:31;13.60;99.90
6164;DHT22;3114;48.362;10.994;2023-04-24T16:11:57;13.40;99.90
6164;DHT22;3114;48.362;10.994;2023-04-24T16:14:24;13.60;99.90
6164;DHT22;3114;48.362;10.994;2023-04-24T16:16:52;13.40;99.90
6164;DHT22;3114;48.362;10.994;2023-04-24T16:19:19;13.30;99.90
6164;DHT22;3114;48.362;10.994;2023-04-24T16:21:46;13.30;99.90
6164;DHT22;3114;48.362;10.994;2023-04-24T16:24:15;13.70;99.90
6164;DHT22;3114;48.362;10.994;2023-04-24T16:26:41;13.60;99.90
6164;DHT22;3114;48.362;10.994;2023-04-24T16:29:08;13.80;99.90
6164;DHT22;3114;48.362;10.994;2023-04-24T16:31:35;13.80;99.90
6164;DHT22;3114;48.362;10.994;2023-04-24T16:34:02;13.40;99.90
6164;DHT22;3114;48.362;10.994;2023-04-24T16:36:29;13.50;99.90
6164;DHT22;3114;48.362;10.994;2023-04-24T16:38:56;13.20;99.90
6164;DHT22;3114;48.362;10.994;2023-04-24T16:41:24;13.30;99.90
6164;DHT22;3114;48.362;10.994;2023-04-24T16:43:50;13.50;99.90
6164;DHT22;3114;48.362;10.994;2023-04-24T16:46:17;13.50;99.90
6164;DHT22;3114;48.362;10.994;2023-04-24T16:48:44;13.50;99.90
6164;DHT22;3114;48.362;10.994;2023-04-24T16:51:11;13.50;99.90
6164;DHT22;3114;48.362;10.994;2023-04-24T16:53:38;13.40;99.90
6164;DHT22;3114;48.362;10.994;2023-04-24T16:56:05;13.20;99.90
6164;DHT22;3114;48.362;10.994;2023-04-24T16:58:33;13.10;99.90
6164;DHT22;3114;48.362;10.994;2023-04-24T17:01:00;13.00;99.90
6164;DHT22;3114;48.362;10.994;2023-04-24T17:03:27;12.90;99.90
6164;DHT22;3114;48.362;10.994;2023-04-24T17:05:54;12.80;99.90
6164;DHT22;3114;48.362;10.994;2023-04-24T17:08:20;12.50;99.90
6164;DHT22;3114;48.362;10.994;2023-04-24T17:10:48;12.50;99.90
6164;DHT22;3114;48.362;10.994;2023-04-24T17:13:15;12.70;99.90
6164;DHT22;3114;48.362;10.994;2023-04-24T17:15:43;12.80;99.90
6164;DHT22;3114;48.362;10.994;2023-04-24T17:18:10;12.50;99.90
6164;DHT22;3114;48.362;10.994;2023-04-24T17:20:37;12.70;99.90
6164;DHT22;3114;48.362;10.994;2023-04-24T17:23:04;12.60;99.90
6164;DHT22;3114;48.362;10.994;2023-04-24T17:25:30;12.70;99.90
6164;DHT22;3114;48.362;10.994;2023-04-24T17:27:57;12.40;99.90
6164;DHT22;3114;48.362;10.994;2023-04-24T17:30:24;12.20;99.90
6164;DHT22;3114;48.362;10.994;2023-04-24T17:32:52;12.20;99.90
6164;DHT22;3114;48.362;10.994;2023-04-24T17:35:19;12.40;99.90
6164;DHT22;3114;48.362;10.994;2023-04-24T17:37:46;12.40;99.90
6164;DHT22;3114;48.362;10.994;2023-04-24T17:40:13;12.20;99.90
6164;DHT22;3114;48.362;10.994;2023-04-24T17:42:40;12.20;99.90
6164;DHT22;3114;48.362;10.994;2023-04-24T17:45:08;11.90;99.90
6164;DHT22;3114;48.362;10.994;2023-04-24T17:47:35;11.80;99.90
6164;DHT22;3114;48.362;10.994;2023-04-24T17:50:03;11.80;99.90
6164;DHT22;3114;48.362;10.994;2023-04-24T17:52:30;11.90;99.90
6164;DHT22;3114;48.362;10.994;2023-04-24T17:54:57;11.70;99.90
6164;DHT22;3114;48.362;10.994;2023-04-24T17:57:24;11.70;99.90
6164;DHT22;3114;48.362;10.994;2023-04-24T17:59:51;11.70;99.90
6164;DHT22;3114;48.362;10.994;2023-04-24T18:02:18;11.50;99.90
6164;DHT22;3114;48.362;10.994;2023-04-24T18:04:45;11.50;99.90
6164;DHT22;3114;48.362;10.994;2023-04-24T18:07:13;11.40;99.90
6164;DHT22;3114;48.362;10.994;2023-04-24T18:09:40;11.40;99.90
6164;DHT22;3114;48.362;10.994;2023-04-24T18:12:07;11.40;99.90
6164;DHT22;3114;48.362;10.994;2023-04-24T18:14:35;11.40;99.90
6164;DHT22;3114;48.362;10.994;2023-04-24T18:17:02;11.40;99.90
6164;DHT22;3114;48.362;10.994;2023-04-24T18:19:28;11.20;99.90
6164;DHT22;3114;48.362;10.994;2023-04-24T18:21:55;11.30;99.90
6164;DHT22;3114;48.362;10.994;2023-04-24T18:24:25;11.20;99.90
6164;DHT22;3114;48.362;10.994;2023-04-24T18:26:52;11.20;99.90
6164;DHT22;3114;48.362;10.994;2023-04-24T18:29:18;11.30;99.90